sensor_id;sensor_type;location;lat;lon;timestamp;pressure;altitude;pressure_sealevel;temperature;humidity
77147;BME280;66121;52.584;9.694;2023-07-16T00:02:19;100555.69;;;20.05;86.25
77147;BME280;66121;52.584;9.694;2023-07-16T00:04:44;100559.19;;;19.84;87.00
77147;BME280;66121;52.584;9.694;2023-07-16T00:07:09;100553.47;;;19.87;87.22
77147;BME280;66121;52.584;9.694;2023-07-16T00:09:35;100566.34;;;19.85;87.13
77147;BME280;66121;52.584;9.694;2023-07-16T00:12:00;100574.88;;;19.94;87.68
77147;BME280;66121;52.584;9.694;2023-07-16T00:14:26;100572.75;;;19.85;87.29
77147;BME280;66121;52.584;9.694;2023-07-16T00:16:51;100568.03;;;19.95;87.00
77147;BME280;66121;52.584;9.694;2023-07-16T00:19:16;100544.28;;;19.87;86.50
77147;BME280;66121;52.584;9.694;2023-07-16T00:21:42;100534.66;;;19.88;87.96
77147;BME280;66121;52.584;9.694;2023-07-16T00:24:07;100510.56;;;19.90;87.39
77147;BME280;66121;52.584;9.694;2023-07-16T00:26:32;100512.72;;;19.86;87.94
77147;BME280;66121;52.584;9.694;2023-07-16T00:28:57;100508.34;;;19.73;87.48
77147;BME280;66121;52.584;9.694;2023-07-16T00:31:23;100523.72;;;19.68;87.59
77147;BME280;66121;52.584;9.694;2023-07-16T00:33:48;100539.47;;;19.75;87.25
77147;BME280;66121;52.584;9.694;2023-07-16T00:36:13;100520.56;;;19.66;87.65
77147;BME280;66121;52.584;9.694;2023-07-16T00:38:39;100517.53;;;19.73;86.17
77147;BME280;66121;52.584;9.694;2023-07-16T00:41:06;100480.03;;;19.71;86.68
77147;BME280;66121;52.584;9.694;2023-07-16T00:43:31;100486.75;;;19.61;88.38
77147;BME280;66121;52.584;9.694;2023-07-16T00:45:57;100540.16;;;19.79;87.75
77147;BME280;66121;52.584;9.694;2023-07-16T00:48:23;100569.16;;;19.60;87.47
77147;BME280;66121;52.584;9.694;2023-07-16T00:50:50;100577.34;;;19.54;87.31
77147;BME280;66121;52.584;9.694;2023-07-16T00:53:17;100579.47;;;19.50;89.68
77147;BME280;66121;52.584;9.694;2023-07-16T00:55:42;100558.09;;;19.44;88.80
77147;BME280;66121;52.584;9.694;2023-07-16T00:58:08;100556.06;;;19.44;88.74
77147;BME280;66121;52.584;9.694;2023-07-16T01:00:34;100554.97;;;19.54;88.51
77147;BME280;66121;52.584;9.694;2023-07-16T01:03:10;100564.00;;;19.58;88.21
77147;BME280;66121;52.584;9.694;2023-07-16T01:05:43;100573.31;;;19.55;90.00
77147;BME280;66121;52.584;9.694;2023-07-16T01:08:11;100580.81;;;19.58;90.35
77147;BME280;66121;52.584;9.694;2023-07-16T01:10:39;100589.31;;;19.55;89.11
77147;BME280;66121;52.584;9.694;2023-07-16T01:13:05;100592.22;;;19.51;89.93
77147;BME280;66121;52.584;9.694;2023-07-16T01:15:30;100612.06;;;19.57;89.96
77147;BME280;66121;52.584;9.694;2023-07-16T01:17:55;100612.06;;;19.57;89.68
77147;BME280;66121;52.584;9.694;2023-07-16T01:20:21;100613.19;;;19.59;90.01
77147;BME280;66121;52.584;9.694;2023-07-16T01:25:35;100600.28;;;19.49;88.85
77147;BME280;66121;52.584;9.694;2023-07-16T01:28:20;100582.81;;;19.58;87.97
77147;BME280;66121;52.584;9.694;2023-07-16T01:30:47;100616.97;;;19.65;89.29
77147;BME280;66121;52.584;9.694;2023-07-16T01:33:15;100637.47;;;19.75;89.22
77147;BME280;66121;52.584;9.694;2023-07-16T01:35:42;100643.75;;;19.66;89.61
77147;BME280;66121;52.584;9.694;2023-07-16T01:38:09;100631.97;;;19.59;90.63
77147;BME280;66121;52.584;9.694;2023-07-16T01:40:35;100617.78;;;19.66;91.82
77147;BME280;66121;52.584;9.694;2023-07-16T01:43:00;100617.66;;;19.57;91.25
77147;BME280;66121;52.584;9.694;2023-07-16T01:45:25;100613.19;;;19.59;91.82
77147;BME280;66121;52.584;9.694;2023-07-16T01:50:35;100597.69;;;19.55;92.79
77147;BME280;66121;52.584;9.694;2023-07-16T01:53:00;100611.03;;;19.51;92.33
77147;BME280;66121;52.584;9.694;2023-07-16T01:55:25;100601.91;;;19.34;92.69
77147;BME280;66121;52.584;9.694;2023-07-16T01:57:51;100602.34;;;19.33;92.92
77147;BME280;66121;52.584;9.694;2023-07-16T02:00:16;100602.25;;;19.36;92.78
77147;BME280;66121;52.584;9.694;2023-07-16T02:02:41;100593.81;;;19.23;93.66
77147;BME280;66121;52.584;9.694;2023-07-16T02:05:07;100595.19;;;19.32;94.94
77147;BME280;66121;52.584;9.694;2023-07-16T02:07:32;100598.31;;;19.34;94.30
77147;BME280;66121;52.584;9.694;2023-07-16T02:09:57;100589.41;;;19.39;94.58
77147;BME280;66121;52.584;9.694;2023-07-16T02:12:23;100576.63;;;19.38;95.25
77147;BME280;66121;52.584;9.694;2023-07-16T02:14:48;100589.84;;;19.50;93.84
77147;BME280;66121;52.584;9.694;2023-07-16T02:17:13;100590.31;;;19.48;93.96
77147;BME280;66121;52.584;9.694;2023-07-16T02:19:38;100579.78;;;19.40;94.75
77147;BME280;66121;52.584;9.694;2023-07-16T02:22:04;100585.13;;;19.34;96.01
77147;BME280;66121;52.584;9.694;2023-07-16T02:24:29;100595.44;;;19.37;95.51
77147;BME280;66121;52.584;9.694;2023-07-16T02:26:54;100590.16;;;19.26;94.12
77147;BME280;66121;52.584;9.694;2023-07-16T02:29:20;100598.31;;;19.21;95.36
77147;BME280;66121;52.584;9.694;2023-07-16T02:31:45;100603.00;;;19.24;95.36
77147;BME280;66121;52.584;9.694;2023-07-16T02:34:13;100594.69;;;19.08;94.45
77147;BME280;66121;52.584;9.694;2023-07-16T02:36:38;100589.56;;;19.19;95.57
77147;BME280;66121;52.584;9.694;2023-07-16T02:39:04;100590.25;;;19.23;94.30
77147;BME280;66121;52.584;9.694;2023-07-16T02:41:29;100591.41;;;19.38;94.00
77147;BME280;66121;52.584;9.694;2023-07-16T02:44:03;100591.50;;;19.35;93.92
77147;BME280;66121;52.584;9.694;2023-07-16T02:46:28;100596.66;;;19.36;94.44
77147;BME280;66121;52.584;9.694;2023-07-16T02:48:54;100596.56;;;19.40;92.23
77147;BME280;66121;52.584;9.694;2023-07-16T02:51:19;100592.16;;;19.26;92.09
77147;BME280;66121;52.584;9.694;2023-07-16T02:53:44;100606.56;;;19.24;92.55
77147;BME280;66121;52.584;9.694;2023-07-16T02:56:09;100603.69;;;19.28;92.96
77147;BME280;66121;52.584;9.694;2023-07-16T02:58:35;100612.53;;;19.26;93.17
77147;BME280;66121;52.584;9.694;2023-07-16T03:01:00;100607.84;;;19.36;93.37
77147;BME280;66121;52.584;9.694;2023-07-16T03:03:25;100599.53;;;19.33;92.49
77147;BME280;66121;52.584;9.694;2023-07-16T03:05:51;100606.19;;;19.39;92.68
77147;BME280;66121;52.584;9.694;2023-07-16T03:08:16;100599.13;;;19.34;92.82
77147;BME280;66121;52.584;9.694;2023-07-16T03:10:41;100612.22;;;19.37;92.52
77147;BME280;66121;52.584;9.694;2023-07-16T03:13:06;100619.31;;;19.42;92.81
77147;BME280;66121;52.584;9.694;2023-07-16T03:15:32;100616.88;;;19.27;94.12
77147;BME280;66121;52.584;9.694;2023-07-16T03:17:57;100627.44;;;19.36;93.92
77147;BME280;66121;52.584;9.694;2023-07-16T03:20:22;100630.31;;;19.33;93.83
77147;BME280;66121;52.584;9.694;2023-07-16T03:22:48;100632.59;;;19.38;93.60
77147;BME280;66121;52.584;9.694;2023-07-16T03:25:13;100635.91;;;19.33;93.85
77147;BME280;66121;52.584;9.694;2023-07-16T03:27:39;100635.50;;;19.34;94.07
77147;BME280;66121;52.584;9.694;2023-07-16T03:30:05;100632.44;;;19.28;94.40
77147;BME280;66121;52.584;9.694;2023-07-16T03:32:31;100632.13;;;19.26;93.63
77147;BME280;66121;52.584;9.694;2023-07-16T03:34:56;100636.66;;;19.20;93.71
77147;BME280;66121;52.584;9.694;2023-07-16T03:37:21;100644.81;;;19.15;93.91
77147;BME280;66121;52.584;9.694;2023-07-16T03:39:46;100651.28;;;18.99;94.56
77147;BME280;66121;52.584;9.694;2023-07-16T03:42:12;100648.03;;;19.01;95.04
77147;BME280;66121;52.584;9.694;2023-07-16T03:44:37;100650.31;;;18.90;94.71
77147;BME280;66121;52.584;9.694;2023-07-16T03:47:03;100654.09;;;18.83;95.53
77147;BME280;66121;52.584;9.694;2023-07-16T03:49:28;100651.56;;;18.73;95.83
77147;BME280;66121;52.584;9.694;2023-07-16T03:51:54;100651.16;;;18.74;95.71
77147;BME280;66121;52.584;9.694;2023-07-16T03:54:19;100663.75;;;18.66;96.48
77147;BME280;66121;52.584;9.694;2023-07-16T03:56:44;100642.69;;;18.61;96.40
77147;BME280;66121;52.584;9.694;2023-07-16T03:59:10;100664.22;;;18.77;96.05
77147;BME280;66121;52.584;9.694;2023-07-16T04:01:35;100668.72;;;18.75;95.90
77147;BME280;66121;52.584;9.694;2023-07-16T04:04:00;100676.66;;;18.76;95.75
77147;BME280;66121;52.584;9.694;2023-07-16T04:06:25;100672.38;;;18.72;95.70
77147;BME280;66121;52.584;9.694;2023-07-16T04:08:51;100679.28;;;18.67;95.86
77147;BME280;66121;52.584;9.694;2023-07-16T04:11:16;100683.44;;;18.75;96.15
77147;BME280;66121;52.584;9.694;2023-07-16T04:13:41;100685.28;;;18.82;96.50
77147;BME280;66121;52.584;9.694;2023-07-16T04:16:07;100697.16;;;18.86;95.90
77147;BME280;66121;52.584;9.694;2023-07-16T04:18:32;100692.38;;;18.86;95.42
77147;BME280;66121;52.584;9.694;2023-07-16T04:20:57;100684.22;;;18.92;94.78
77147;BME280;66121;52.584;9.694;2023-07-16T04:23:23;100705.16;;;19.00;95.02
77147;BME280;66121;52.584;9.694;2023-07-16T04:25:55;100699.22;;;18.98;94.43
77147;BME280;66121;52.584;9.694;2023-07-16T04:28:20;100704.00;;;19.13;93.68
77147;BME280;66121;52.584;9.694;2023-07-16T04:30:46;100701.34;;;19.22;93.47
77147;BME280;66121;52.584;9.694;2023-07-16T04:33:11;100711.81;;;19.35;92.80
77147;BME280;66121;52.584;9.694;2023-07-16T04:35:36;100713.47;;;19.03;93.45
77147;BME280;66121;52.584;9.694;2023-07-16T04:38:02;100720.13;;;19.09;93.86
77147;BME280;66121;52.584;9.694;2023-07-16T04:40:29;100715.53;;;19.15;93.65
77147;BME280;66121;52.584;9.694;2023-07-16T04:42:55;100731.25;;;19.42;92.38
77147;BME280;66121;52.584;9.694;2023-07-16T04:45:20;100732.06;;;19.55;91.68
77147;BME280;66121;52.584;9.694;2023-07-16T04:47:45;100725.25;;;19.56;91.31
77147;BME280;66121;52.584;9.694;2023-07-16T04:50:11;100732.06;;;19.55;90.67
77147;BME280;66121;52.584;9.694;2023-07-16T04:52:37;100751.66;;;19.55;89.88
77147;BME280;66121;52.584;9.694;2023-07-16T04:55:02;100750.75;;;19.86;89.31
77147;BME280;66121;52.584;9.694;2023-07-16T04:57:27;100763.09;;;20.02;88.52
77147;BME280;66121;52.584;9.694;2023-07-16T04:59:53;100764.25;;;20.54;86.45
77147;BME280;66121;52.584;9.694;2023-07-16T05:02:18;100755.28;;;20.34;85.49
77147;BME280;66121;52.584;9.694;2023-07-16T05:04:44;100761.44;;;20.17;86.15
77147;BME280;66121;52.584;9.694;2023-07-16T05:07:14;100765.28;;;20.35;86.79
77147;BME280;66121;52.584;9.694;2023-07-16T05:09:42;100768.75;;;20.52;85.20
77147;BME280;66121;52.584;9.694;2023-07-16T05:12:08;100761.03;;;20.56;84.88
77147;BME280;66121;52.584;9.694;2023-07-16T05:14:46;100763.94;;;20.40;84.48
77147;BME280;66121;52.584;9.694;2023-07-16T05:17:12;100762.47;;;20.61;83.10
77147;BME280;66121;52.584;9.694;2023-07-16T05:19:37;100774.34;;;20.65;84.56
77147;BME280;66121;52.584;9.694;2023-07-16T05:22:03;100777.38;;;20.70;82.81
77147;BME280;66121;52.584;9.694;2023-07-16T05:24:28;100769.91;;;21.14;82.00
77147;BME280;66121;52.584;9.694;2023-07-16T05:26:53;100764.75;;;21.00;81.73
77147;BME280;66121;52.584;9.694;2023-07-16T05:29:19;100757.72;;;21.08;81.78
77147;BME280;66121;52.584;9.694;2023-07-16T05:31:44;100769.88;;;21.27;80.59
77147;BME280;66121;52.584;9.694;2023-07-16T05:34:11;100769.53;;;21.25;79.85
77147;BME280;66121;52.584;9.694;2023-07-16T05:36:37;100767.91;;;21.14;79.97
77147;BME280;66121;52.584;9.694;2023-07-16T05:39:02;100761.38;;;21.73;77.02
77147;BME280;66121;52.584;9.694;2023-07-16T05:41:28;100770.50;;;21.65;77.16
77147;BME280;66121;52.584;9.694;2023-07-16T05:43:53;100763.72;;;21.19;77.99
77147;BME280;66121;52.584;9.694;2023-07-16T05:46:18;100772.09;;;21.66;77.12
77147;BME280;66121;52.584;9.694;2023-07-16T05:48:43;100763.94;;;21.25;77.89
77147;BME280;66121;52.584;9.694;2023-07-16T05:51:09;100782.66;;;21.62;77.11
77147;BME280;66121;52.584;9.694;2023-07-16T05:53:34;100765.19;;;21.24;76.91
77147;BME280;66121;52.584;9.694;2023-07-16T05:55:59;100784.22;;;21.41;76.41
77147;BME280;66121;52.584;9.694;2023-07-16T05:58:25;100787.88;;;21.51;76.96
77147;BME280;66121;52.584;9.694;2023-07-16T06:00:50;100790.19;;;21.31;77.13
77147;BME280;66121;52.584;9.694;2023-07-16T06:03:15;100792.59;;;20.94;78.64
77147;BME280;66121;52.584;9.694;2023-07-16T06:05:42;100784.41;;;21.12;77.06
77147;BME280;66121;52.584;9.694;2023-07-16T06:08:07;100789.78;;;21.19;77.57
77147;BME280;66121;52.584;9.694;2023-07-16T06:10:36;100795.31;;;20.60;78.67
77147;BME280;66121;52.584;9.694;2023-07-16T06:13:01;100799.72;;;20.74;79.44
77147;BME280;66121;52.584;9.694;2023-07-16T06:15:27;100803.13;;;21.28;77.70
77147;BME280;66121;52.584;9.694;2023-07-16T06:17:52;100800.59;;;21.64;76.44
77147;BME280;66121;52.584;9.694;2023-07-16T06:20:17;100793.25;;;21.58;74.19
77147;BME280;66121;52.584;9.694;2023-07-16T06:22:43;100798.25;;;21.41;75.28
77147;BME280;66121;52.584;9.694;2023-07-16T06:25:08;100805.31;;;21.67;74.41
77147;BME280;66121;52.584;9.694;2023-07-16T06:27:36;100802.72;;;21.51;72.99
77147;BME280;66121;52.584;9.694;2023-07-16T06:30:01;100807.66;;;21.47;74.75
77147;BME280;66121;52.584;9.694;2023-07-16T06:32:26;100810.44;;;21.00;74.36
77147;BME280;66121;52.584;9.694;2023-07-16T06:34:51;100813.03;;;20.82;74.13
77147;BME280;66121;52.584;9.694;2023-07-16T06:37:17;100810.13;;;20.86;75.70
77147;BME280;66121;52.584;9.694;2023-07-16T06:39:42;100820.09;;;20.99;74.66
77147;BME280;66121;52.584;9.694;2023-07-16T06:42:07;100816.63;;;21.08;73.74
77147;BME280;66121;52.584;9.694;2023-07-16T06:44:33;100812.69;;;21.74;71.48
77147;BME280;66121;52.584;9.694;2023-07-16T06:46:58;100822.25;;;22.20;69.81
77147;BME280;66121;52.584;9.694;2023-07-16T06:49:23;100813.56;;;22.27;69.60
77147;BME280;66121;52.584;9.694;2023-07-16T06:51:48;100812.69;;;21.74;69.94
77147;BME280;66121;52.584;9.694;2023-07-16T06:54:14;100816.34;;;21.62;70.77
77147;BME280;66121;52.584;9.694;2023-07-16T06:56:39;100814.09;;;21.35;71.59
77147;BME280;66121;52.584;9.694;2023-07-16T06:59:04;100832.09;;;21.59;71.48
77147;BME280;66121;52.584;9.694;2023-07-16T07:01:30;100829.34;;;21.34;71.48
77147;BME280;66121;52.584;9.694;2023-07-16T07:03:55;100827.41;;;21.56;70.23
77147;BME280;66121;52.584;9.694;2023-07-16T07:06:20;100837.69;;;22.15;69.37
77147;BME280;66121;52.584;9.694;2023-07-16T07:08:46;100834.41;;;22.17;67.60
77147;BME280;66121;52.584;9.694;2023-07-16T07:11:12;100827.09;;;22.19;65.67
77147;BME280;66121;52.584;9.694;2023-07-16T07:13:37;100834.13;;;22.24;64.70
77147;BME280;66121;52.584;9.694;2023-07-16T07:16:02;100829.94;;;22.81;65.60
77147;BME280;66121;52.584;9.694;2023-07-16T07:18:28;100826.63;;;22.52;64.42
77147;BME280;66121;52.584;9.694;2023-07-16T07:20:53;100833.84;;;22.53;62.80
77147;BME280;66121;52.584;9.694;2023-07-16T07:23:18;100839.91;;;22.73;62.97
77147;BME280;66121;52.584;9.694;2023-07-16T07:25:48;100835.00;;;22.64;60.62
77147;BME280;66121;52.584;9.694;2023-07-16T07:28:15;100828.13;;;22.96;57.72
77147;BME280;66121;52.584;9.694;2023-07-16T07:30:40;100832.19;;;23.04;57.61
77147;BME280;66121;52.584;9.694;2023-07-16T07:33:05;100834.88;;;23.17;56.00
77147;BME280;66121;52.584;9.694;2023-07-16T07:35:30;100841.84;;;23.70;57.73
77147;BME280;66121;52.584;9.694;2023-07-16T07:37:56;100837.88;;;23.31;55.24
77147;BME280;66121;52.584;9.694;2023-07-16T07:40:21;100837.47;;;23.78;54.60
77147;BME280;66121;52.584;9.694;2023-07-16T07:42:46;100841.53;;;23.77;53.42
77147;BME280;66121;52.584;9.694;2023-07-16T07:45:12;100831.69;;;23.45;52.78
77147;BME280;66121;52.584;9.694;2023-07-16T07:47:37;100831.00;;;22.43;53.02
77147;BME280;66121;52.584;9.694;2023-07-16T07:50:02;100823.78;;;23.13;51.82
77147;BME280;66121;52.584;9.694;2023-07-16T07:52:28;100835.28;;;23.55;51.20
77147;BME280;66121;52.584;9.694;2023-07-16T07:54:53;100836.03;;;23.46;50.17
77147;BME280;66121;52.584;9.694;2023-07-16T07:57:19;100841.97;;;23.48;52.66
77147;BME280;66121;52.584;9.694;2023-07-16T07:59:45;100845.75;;;24.09;49.60
77147;BME280;66121;52.584;9.694;2023-07-16T08:02:10;100850.56;;;24.86;50.05
77147;BME280;66121;52.584;9.694;2023-07-16T08:04:35;100834.94;;;23.98;46.48
77147;BME280;66121;52.584;9.694;2023-07-16T08:07:01;100858.91;;;24.03;47.45
77147;BME280;66121;52.584;9.694;2023-07-16T08:09:26;100854.13;;;24.54;48.32
77147;BME280;66121;52.584;9.694;2023-07-16T08:11:52;100856.09;;;24.12;46.49
77147;BME280;66121;52.584;9.694;2023-07-16T08:14:17;100867.34;;;24.90;46.93
77147;BME280;66121;52.584;9.694;2023-07-16T08:16:42;100871.97;;;25.35;45.75
77147;BME280;66121;52.584;9.694;2023-07-16T08:19:08;100870.16;;;26.08;46.36
77147;BME280;66121;52.584;9.694;2023-07-16T08:21:33;100867.41;;;25.61;43.26
77147;BME280;66121;52.584;9.694;2023-07-16T08:23:58;100871.47;;;25.84;43.98
77147;BME280;66121;52.584;9.694;2023-07-16T08:26:24;100872.13;;;24.57;44.15
77147;BME280;66121;52.584;9.694;2023-07-16T08:28:49;100870.50;;;23.50;45.83
77147;BME280;66121;52.584;9.694;2023-07-16T08:31:14;100891.13;;;23.47;48.55
77147;BME280;66121;52.584;9.694;2023-07-16T08:33:40;100874.25;;;23.93;44.69
77147;BME280;66121;52.584;9.694;2023-07-16T08:36:05;100879.09;;;23.56;46.73
77147;BME280;66121;52.584;9.694;2023-07-16T08:38:31;100889.75;;;24.43;46.88
77147;BME280;66121;52.584;9.694;2023-07-16T08:40:56;100883.22;;;24.69;43.33
77147;BME280;66121;52.584;9.694;2023-07-16T08:43:21;100887.03;;;25.65;42.59
77147;BME280;66121;52.584;9.694;2023-07-16T08:45:48;100883.78;;;25.57;43.96
77147;BME280;66121;52.584;9.694;2023-07-16T08:48:16;100888.75;;;25.62;42.26
77147;BME280;66121;52.584;9.694;2023-07-16T08:50:42;100885.31;;;26.20;42.14
77147;BME280;66121;52.584;9.694;2023-07-16T08:53:07;100878.06;;;26.04;40.07
77147;BME280;66121;52.584;9.694;2023-07-16T08:55:33;100879.09;;;25.54;40.97
77147;BME280;66121;52.584;9.694;2023-07-16T08:58:02;100888.50;;;25.27;40.78
77147;BME280;66121;52.584;9.694;2023-07-16T09:00:28;100879.63;;;24.69;41.47
77147;BME280;66121;52.584;9.694;2023-07-16T09:02:55;100878.38;;;25.35;42.43
77147;BME280;66121;52.584;9.694;2023-07-16T09:05:21;100886.91;;;25.59;41.02
77147;BME280;66121;52.584;9.694;2023-07-16T09:07:47;100886.66;;;25.48;42.60
77147;BME280;66121;52.584;9.694;2023-07-16T09:10:12;100875.50;;;26.06;42.04
77147;BME280;66121;52.584;9.694;2023-07-16T09:12:45;100884.94;;;25.89;41.59
77147;BME280;66121;52.584;9.694;2023-07-16T09:15:11;100888.56;;;25.89;43.62
77147;BME280;66121;52.584;9.694;2023-07-16T09:17:37;100879.72;;;26.11;39.96
77147;BME280;66121;52.584;9.694;2023-07-16T09:20:04;100888.25;;;26.55;40.24
77147;BME280;66121;52.584;9.694;2023-07-16T09:22:33;100879.38;;;26.62;38.44
77147;BME280;66121;52.584;9.694;2023-07-16T09:25:00;100878.75;;;25.76;37.91
77147;BME280;66121;52.584;9.694;2023-07-16T09:27:29;100886.31;;;26.08;39.14
77147;BME280;66121;52.584;9.694;2023-07-16T09:29:54;100879.59;;;26.05;40.10
77147;BME280;66121;52.584;9.694;2023-07-16T09:32:20;100884.03;;;26.36;38.52
77147;BME280;66121;52.584;9.694;2023-07-16T09:34:49;100891.78;;;26.79;38.31
77147;BME280;66121;52.584;9.694;2023-07-16T09:37:14;100895.56;;;26.47;37.63
77147;BME280;66121;52.584;9.694;2023-07-16T09:39:40;100898.13;;;25.92;38.70
77147;BME280;66121;52.584;9.694;2023-07-16T09:42:07;100906.00;;;26.41;36.59
77147;BME280;66121;52.584;9.694;2023-07-16T09:44:33;100905.41;;;26.22;37.13
77147;BME280;66121;52.584;9.694;2023-07-16T09:46:59;100909.91;;;26.29;39.04
77147;BME280;66121;52.584;9.694;2023-07-16T09:49:28;100892.94;;;26.58;36.43
77147;BME280;66121;52.584;9.694;2023-07-16T09:51:56;100906.69;;;27.43;39.08
77147;BME280;66121;52.584;9.694;2023-07-16T09:54:24;100884.91;;;27.00;37.33
77147;BME280;66121;52.584;9.694;2023-07-16T09:56:52;100905.66;;;26.77;38.31
77147;BME280;66121;52.584;9.694;2023-07-16T09:59:21;100906.00;;;26.55;38.81
77147;BME280;66121;52.584;9.694;2023-07-16T10:01:47;100911.88;;;26.23;38.71
77147;BME280;66121;52.584;9.694;2023-07-16T10:04:14;100911.88;;;26.37;38.69
77147;BME280;66121;52.584;9.694;2023-07-16T10:06:55;100916.03;;;27.15;38.91
77147;BME280;66121;52.584;9.694;2023-07-16T10:09:33;100918.88;;;27.90;37.18
77147;BME280;66121;52.584;9.694;2023-07-16T10:14:42;100910.25;;;25.03;41.70
77147;BME280;66121;52.584;9.694;2023-07-16T10:17:12;100908.72;;;25.82;40.15
77147;BME280;66121;52.584;9.694;2023-07-16T10:19:51;100923.13;;;25.37;41.10
77147;BME280;66121;52.584;9.694;2023-07-16T10:22:18;100917.34;;;26.02;40.51
77147;BME280;66121;52.584;9.694;2023-07-16T10:24:43;100917.53;;;26.23;42.36
77147;BME280;66121;52.584;9.694;2023-07-16T10:27:09;100916.19;;;26.62;40.81
77147;BME280;66121;52.584;9.694;2023-07-16T10:29:37;100923.06;;;27.54;40.93
77147;BME280;66121;52.584;9.694;2023-07-16T10:32:05;100906.78;;;26.85;41.56
77147;BME280;66121;52.584;9.694;2023-07-16T10:34:34;100915.84;;;27.04;42.13
77147;BME280;66121;52.584;9.694;2023-07-16T10:37:00;100934.03;;;28.01;40.64
77147;BME280;66121;52.584;9.694;2023-07-16T10:39:25;100926.78;;;27.11;38.05
77147;BME280;66121;52.584;9.694;2023-07-16T10:41:50;100930.19;;;26.12;40.51
77147;BME280;66121;52.584;9.694;2023-07-16T10:44:16;100928.28;;;25.38;42.27
77147;BME280;66121;52.584;9.694;2023-07-16T10:46:42;100923.56;;;25.12;40.54
77147;BME280;66121;52.584;9.694;2023-07-16T10:49:07;100931.44;;;24.98;41.80
77147;BME280;66121;52.584;9.694;2023-07-16T10:51:33;100938.81;;;25.05;41.77
77147;BME280;66121;52.584;9.694;2023-07-16T10:53:58;100949.38;;;25.85;41.71
77147;BME280;66121;52.584;9.694;2023-07-16T10:56:24;100936.22;;;25.16;40.67
77147;BME280;66121;52.584;9.694;2023-07-16T10:58:49;100940.00;;;24.80;40.84
77147;BME280;66121;52.584;9.694;2023-07-16T11:01:15;100939.84;;;25.17;41.94
77147;BME280;66121;52.584;9.694;2023-07-16T11:03:40;100945.72;;;25.37;39.70
77147;BME280;66121;52.584;9.694;2023-07-16T11:06:09;100939.56;;;25.47;38.14
77147;BME280;66121;52.584;9.694;2023-07-16T11:08:34;100945.22;;;25.38;40.03
77147;BME280;66121;52.584;9.694;2023-07-16T11:11:00;100946.31;;;25.50;39.54
77147;BME280;66121;52.584;9.694;2023-07-16T11:13:31;100942.03;;;26.55;41.04
77147;BME280;66121;52.584;9.694;2023-07-16T11:15:57;100936.44;;;25.69;38.25
77147;BME280;66121;52.584;9.694;2023-07-16T11:18:26;100943.72;;;25.28;37.96
77147;BME280;66121;52.584;9.694;2023-07-16T11:20:52;100943.88;;;26.05;36.78
77147;BME280;66121;52.584;9.694;2023-07-16T11:23:18;100952.84;;;26.27;38.97
77147;BME280;66121;52.584;9.694;2023-07-16T11:25:51;100954.38;;;26.28;41.49
77147;BME280;66121;52.584;9.694;2023-07-16T11:28:16;100965.03;;;26.33;39.68
77147;BME280;66121;52.584;9.694;2023-07-16T11:30:42;100946.22;;;26.45;37.79
77147;BME280;66121;52.584;9.694;2023-07-16T11:33:11;100962.59;;;26.26;38.61
77147;BME280;66121;52.584;9.694;2023-07-16T11:35:40;100956.63;;;25.20;39.91
77147;BME280;66121;52.584;9.694;2023-07-16T11:38:05;100949.56;;;25.57;40.48
77147;BME280;66121;52.584;9.694;2023-07-16T11:40:34;100953.13;;;24.92;39.74
77147;BME280;66121;52.584;9.694;2023-07-16T11:43:08;100946.53;;;24.86;39.35
77147;BME280;66121;52.584;9.694;2023-07-16T11:45:34;100945.56;;;24.98;39.36
77147;BME280;66121;52.584;9.694;2023-07-16T11:48:01;100949.78;;;26.16;39.45
77147;BME280;66121;52.584;9.694;2023-07-16T11:50:27;100963.13;;;26.54;38.87
77147;BME280;66121;52.584;9.694;2023-07-16T11:52:53;100953.19;;;27.02;39.08
77147;BME280;66121;52.584;9.694;2023-07-16T11:55:19;100944.59;;;27.46;35.27
77147;BME280;66121;52.584;9.694;2023-07-16T11:57:44;100938.59;;;27.24;36.46
77147;BME280;66121;52.584;9.694;2023-07-16T12:00:09;100947.78;;;28.08;38.11
77147;BME280;66121;52.584;9.694;2023-07-16T12:02:36;100946.19;;;27.18;35.41
77147;BME280;66121;52.584;9.694;2023-07-16T12:05:02;100952.31;;;26.96;38.76
77147;BME280;66121;52.584;9.694;2023-07-16T12:07:37;100959.47;;;27.26;37.08
77147;BME280;66121;52.584;9.694;2023-07-16T12:10:04;100963.56;;;27.25;35.94
77147;BME280;66121;52.584;9.694;2023-07-16T12:12:31;100960.03;;;26.81;37.57
77147;BME280;66121;52.584;9.694;2023-07-16T12:14:56;100954.47;;;26.87;36.17
77147;BME280;66121;52.584;9.694;2023-07-16T12:17:21;100960.13;;;26.87;35.75
77147;BME280;66121;52.584;9.694;2023-07-16T12:19:47;100964.47;;;27.31;36.36
77147;BME280;66121;52.584;9.694;2023-07-16T12:22:13;100969.41;;;27.02;36.59
77147;BME280;66121;52.584;9.694;2023-07-16T12:24:41;100964.53;;;26.20;36.66
77147;BME280;66121;52.584;9.694;2023-07-16T12:27:06;100964.97;;;27.15;36.17
77147;BME280;66121;52.584;9.694;2023-07-16T12:29:31;100963.03;;;26.77;35.69
77147;BME280;66121;52.584;9.694;2023-07-16T12:31:57;100963.53;;;26.76;37.34
77147;BME280;66121;52.584;9.694;2023-07-16T12:34:22;100978.16;;;27.68;36.90
77147;BME280;66121;52.584;9.694;2023-07-16T12:36:47;100977.41;;;26.21;38.27
77147;BME280;66121;52.584;9.694;2023-07-16T12:39:13;100975.13;;;25.21;39.13
77147;BME280;66121;52.584;9.694;2023-07-16T12:41:38;100980.31;;;26.12;37.91
77147;BME280;66121;52.584;9.694;2023-07-16T12:44:03;100978.56;;;27.11;36.26
77147;BME280;66121;52.584;9.694;2023-07-16T12:46:29;100986.38;;;27.16;35.73
77147;BME280;66121;52.584;9.694;2023-07-16T12:48:54;100977.38;;;27.03;36.43
77147;BME280;66121;52.584;9.694;2023-07-16T12:51:19;100990.84;;;28.07;36.63
77147;BME280;66121;52.584;9.694;2023-07-16T12:53:45;100982.34;;;27.72;36.26